Charles Darwin — GDLS — position and weather

sailwx.info

Track history (hours):
 
Tides and Currents Weather Stations Pressure Air Temp Water Temp Dewpoint Dewpoint Depression Visibility Wind Speed Wind Dir Waves Ship Positions

Oceanographic research ship Charles Darwin (UK)

Detailed information on ship capabilities available from University of Delaware's Ocean Information Center.

Last reported at 2018-Jun-18 23:57 UTC. Time now 2018-Jun-19 01:26 UTC.
Position N 40°20' W 073°23'.

Length 70 m; draft 5.7 m.

Type: Cargo ship. MMSI: 235011460.

Date/timePositionNaut miles runAvg speedWind from/ knotsBaromVisibWave heightAir tempDewpointWater temp
2018-Jun-18 23:57N 40°20' W 073°23'2 4.1
2018-Jun-18 23:28N 40°19' W 073°21'2 3.9
2018-Jun-18 22:55N 40°19' W 073°18'2 4.0
2018-Jun-18 22:29N 40°18' W 073°16'2 3.9
2018-Jun-18 22:00N 40°17' W 073°14'2 4.0
2018-Jun-18 21:26N 40°16' W 073°11'2 4.0
2018-Jun-18 20:51N 40°15' W 073°09'1 2.6
2018-Jun-18 20:28N 40°14' W 073°08'10 2.2
2018-Jun-18 15:53N 40°19' W 073°19'2 4.0
2018-Jun-18 15:30N 40°18' W 073°18'2 4.0
2018-Jun-18 14:55N 40°17' W 073°15'2 4.1
2018-Jun-18 14:30N 40°17' W 073°13'1 0.2
2018-Jun-18 11:00N 40°17' W 073°14'6 4.0
2018-Jun-18 09:29N 40°20' W 073°21'2 4.0
2018-Jun-18 08:59N 40°21' W 073°23'2 3.7
2018-Jun-18 08:31N 40°20' W 073°21'2 4.1
2018-Jun-18 08:00N 40°19' W 073°18'2 4.0
2018-Jun-18 07:31N 40°18' W 073°16'2 4.0
2018-Jun-18 07:00N 40°17' W 073°14'2 3.9
2018-Jun-18 06:31N 40°16' W 073°11'2 4.0
2018-Jun-18 06:01N 40°15' W 073°09'3 1.7
2018-Jun-18 04:24N 40°17' W 073°12'9 4.0
2018-Jun-18 02:17N 40°21' W 073°22'1 3.9
2018-Jun-18 02:00N 40°20' W 073°21'12 1.2
2018-Jun-17 16:35N 40°15' W 073°07'12 4.0
2018-Jun-17 13:32N 40°20' W 073°21'0 3.6
2018-Jun-17 13:30N 40°20' W 073°21'2 4.1
2018-Jun-17 12:59N 40°19' W 073°19'2 4.1
2018-Jun-17 12:31N 40°18' W 073°16'2 4.0
2018-Jun-17 12:00N 40°18' W 073°14'2 4.0
2018-Jun-17 11:30N 40°17' W 073°12'2 0.1
2018-Jun-16 10:58N 40°18' W 073°11'  
2018-Jun-13 04:02N 40°19' W 073°27'11 4.0
2018-Jun-13 01:24N 40°14' W 073°15'2 4.0
2018-Jun-13 00:58N 40°14' W 073°13'17 0.9
2018-Jun-12 05:57N 40°22' W 073°32'4 4.0
2018-Jun-12 04:50N 40°20' W 073°27'1 3.9
2018-Jun-12 04:29N 40°19' W 073°25'2 4.0
2018-Jun-12 04:00N 40°18' W 073°23'2 4.0
2018-Jun-12 03:30N 40°17' W 073°21'3 4.0
2018-Jun-12 02:41N 40°16' W 073°17'1 4.0
2018-Jun-12 02:20N 40°15' W 073°15'8 0.2
2018-Jun-10 06:13N 40°19' W 073°24'1 4.0
2018-Jun-10 05:51N 40°18' W 073°22'0 0.8
2018-Jun-10 05:19N 40°18' W 073°22'  
Track history (hours):
 
Tides and Currents Weather Stations Pressure Air Temp Water Temp Dewpoint Dewpoint Depression Visibility Wind Speed Wind Dir Waves Ship Positions

Oceanographic research ship Charles Darwin (UK)

Detailed information on ship capabilities available from University of Delaware's Ocean Information Center.

Last reported at 2018-Jun-18 23:57 UTC. Time now 2018-Jun-19 01:26 UTC.
Position N 40°20' W 073°23'.

Length 70 m; draft 5.7 m.

Type: Cargo ship. MMSI: 235011460.

Date/timePositionNaut miles runAvg speedWind from/ knotsBaromVisibWave heightAir tempDewpointWater temp
2018-Jun-18 23:57N 40°20' W 073°23'2 4.1
2018-Jun-18 23:28N 40°19' W 073°21'2 3.9
2018-Jun-18 22:55N 40°19' W 073°18'2 4.0
2018-Jun-18 22:29N 40°18' W 073°16'2 3.9
2018-Jun-18 22:00N 40°17' W 073°14'2 4.0
2018-Jun-18 21:26N 40°16' W 073°11'2 4.0
2018-Jun-18 20:51N 40°15' W 073°09'1 2.6
2018-Jun-18 20:28N 40°14' W 073°08'10 2.2
2018-Jun-18 15:53N 40°19' W 073°19'2 4.0
2018-Jun-18 15:30N 40°18' W 073°18'2 4.0
2018-Jun-18 14:55N 40°17' W 073°15'2 4.1
2018-Jun-18 14:30N 40°17' W 073°13'1 0.2
2018-Jun-18 11:00N 40°17' W 073°14'6 4.0
2018-Jun-18 09:29N 40°20' W 073°21'2 4.0
2018-Jun-18 08:59N 40°21' W 073°23'2 3.7
2018-Jun-18 08:31N 40°20' W 073°21'2 4.1
2018-Jun-18 08:00N 40°19' W 073°18'2 4.0
2018-Jun-18 07:31N 40°18' W 073°16'2 4.0
2018-Jun-18 07:00N 40°17' W 073°14'2 3.9
2018-Jun-18 06:31N 40°16' W 073°11'2 4.0
2018-Jun-18 06:01N 40°15' W 073°09'3 1.7
2018-Jun-18 04:24N 40°17' W 073°12'9 4.0
2018-Jun-18 02:17N 40°21' W 073°22'1 3.9
2018-Jun-18 02:00N 40°20' W 073°21'12 1.2
2018-Jun-17 16:35N 40°15' W 073°07'12 4.0
2018-Jun-17 13:32N 40°20' W 073°21'0 3.6
2018-Jun-17 13:30N 40°20' W 073°21'2 4.1
2018-Jun-17 12:59N 40°19' W 073°19'2 4.1
2018-Jun-17 12:31N 40°18' W 073°16'2 4.0
2018-Jun-17 12:00N 40°18' W 073°14'2 4.0
2018-Jun-17 11:30N 40°17' W 073°12'2 0.1
2018-Jun-16 10:58N 40°18' W 073°11'  
2018-Jun-13 04:02N 40°19' W 073°27'11 4.0
2018-Jun-13 01:24N 40°14' W 073°15'2 4.0
2018-Jun-13 00:58N 40°14' W 073°13'17 0.9
2018-Jun-12 05:57N 40°22' W 073°32'4 4.0
2018-Jun-12 04:50N 40°20' W 073°27'1 3.9
2018-Jun-12 04:29N 40°19' W 073°25'2 4.0
2018-Jun-12 04:00N 40°18' W 073°23'2 4.0
2018-Jun-12 03:30N 40°17' W 073°21'3 4.0
2018-Jun-12 02:41N 40°16' W 073°17'1 4.0
2018-Jun-12 02:20N 40°15' W 073°15'8 0.2
2018-Jun-10 06:13N 40°19' W 073°24'1 4.0
2018-Jun-10 05:51N 40°18' W 073°22'0 0.8
2018-Jun-10 05:19N 40°18' W 073°22'  

Dump ship's entire track history